Mc Call Municipal Airport
KMYL : now visible

Airfield :











YOU CAN JOIN US ON...

 
LOGIN :

Register | Disclaimer

   EN    FR    IT 

 









Legend :    VFR   Marginal VFR   IFR   Intensive IFR   Very Intensive IFR
Visi :
Ceiling :
>= 8 km
>= 3000ft
5 to 8 km
1000 to 3000 ft
1500m to 5 km
500 to 1000 ft
800 to 1500m
200 to 500 ft
< 800m
< 200 ft
Symbols :   Thunderstorms  Fog  Heavy snow  Heavy precipitations  Wind > 20 kt






- Airport Elevation : 5024 ft


KMYL - Mc Call Municipal

CURRENT METAR :
  • 181751Z AUTO 00000KT 10SM OVC055 M04/M08 A3031 RMK AO2 SLP312 T10391083 11033 21072 51014 $

EXPIRED METARs :
  • 181651Z AUTO 00000KT 10SM BKN060 OVC075 M04/M08 A3029 RMK AO2 SLP305 T10441083 $
  • 181551Z AUTO 00000KT 10SM SCT038 OVC060 M07/M09 A3028 RMK AO2 SLP307 T10671089 $

TAF KMYL
Valid from the 18 at 18:00 until the 19 at 18:00 UTC


181738Z 1818/1918 VRB03KT P6SM VCSH BKN040 OVC060
FM181900 VRB03KT 1 1/2SM -SN BKN010 OVC025
FM182300 VRB03KT P6SM BKN050



MET'MAP, your aeronautical weather chart ! - Copyright ORBIFLY December 2007 - Disclaimer

ORBIFLY MET'MAP TEAM :

Programming & Development : Alexandra Zaïnal
Concept & original design : Baudouin d'Aumeries
Assistance for programming : Marc-Olivier Méhu
Technical & hardware support : Manuel Goepfert

Contact : metmap@orbifly.com




SOURCES & CREDITS :

   NOAA       Earth
Advisory